Time;durP1;ratioP1;P1;durP2;ratioP2;P2;SDS_P1;SDS_P2;PMS_P1;PMS_P2;Temp;Humidity;BMP_temperature;BMP_pressure;BME280_temperature;BME280_humidity;BME280_pressure;Samples;Min_cycle;Max_cycle;Signal;HPM_P1;HPM_P2
2023/06/01 00:00:33;;;;;;;6.15;4.85;;;13.80;99.90;;;;;;5030857;28;20180;-61
2023/06/01 00:02:58;;;;;;;8.98;5.00;;;13.70;99.90;;;;;;5030779;28;20173;-61
2023/06/01 00:05:24;;;;;;;7.32;4.60;;;13.60;99.90;;;;;;5030818;28;20633;-62
2023/06/01 00:07:50;;;;;;;10.57;4.93;;;13.80;99.90;;;;;;5030621;28;20205;-62
2023/06/01 00:10:16;;;;;;;11.02;4.50;;;13.80;99.90;;;;;;5030889;28;20166;-62
2023/06/01 00:12:42;;;;;;;6.45;4.35;;;13.80;99.90;;;;;;5030651;28;20209;-62
2023/06/01 00:15:09;;;;;;;7.85;5.00;;;13.80;99.90;;;;;;5030875;28;20257;-60
2023/06/01 00:17:35;;;;;;;7.68;4.47;;;13.70;99.90;;;;;;5030643;28;20170;-61
2023/06/01 00:20:00;;;;;;;7.25;4.57;;;13.70;99.90;;;;;;5030545;28;20651;-60
2023/06/01 00:22:28;;;;;;;7.50;4.68;;;13.70;99.90;;;;;;5030557;28;20650;-61
2023/06/01 00:24:55;;;;;;;6.40;4.13;;;13.70;99.90;;;;;;5030479;28;20178;-60
2023/06/01 00:27:21;;;;;;;12.52;4.65;;;13.80;99.90;;;;;;5030529;28;20206;-61
2023/06/01 00:29:46;;;;;;;6.70;4.47;;;13.70;99.90;;;;;;5030536;28;20714;-61
2023/06/01 00:32:12;;;;;;;5.82;4.38;;;13.70;99.90;;;;;;5030277;28;20717;-61
2023/06/01 00:34:38;;;;;;;8.98;4.50;;;;;;;;;;5030468;28;20198;-60
2023/06/01 00:37:04;;;;;;;6.38;4.20;;;13.70;99.90;;;;;;5032655;28;20253;-62
2023/06/01 00:39:29;;;;;;;6.85;4.75;;;13.60;99.90;;;;;;5034329;28;20638;-59
2023/06/01 00:41:55;;;;;;;6.93;4.32;;;13.60;99.90;;;;;;5034214;28;20642;-60
2023/06/01 00:44:20;;;;;;;5.97;4.05;;;13.70;99.90;;;;;;5034267;28;20177;-60
2023/06/01 00:46:46;;;;;;;8.18;4.43;;;13.60;99.90;;;;;;5034013;28;20260;-61
2023/06/01 00:49:12;;;;;;;8.57;4.68;;;13.70;99.90;;;;;;5016342;28;20251;-60
2023/06/01 00:51:37;;;;;;;7.63;5.10;;;13.40;99.90;;;;;;5034226;28;20177;-60
2023/06/01 00:54:03;;;;;;;6.47;4.70;;;13.50;99.90;;;;;;5034063;28;20695;-60
2023/06/01 00:56:31;;;;;;;7.40;4.57;;;13.50;99.90;;;;;;5034011;28;20712;-61
2023/06/01 00:58:57;;;;;;;8.18;4.65;;;13.40;99.90;;;;;;5032116;28;20206;-59
2023/06/01 01:01:24;;;;;;;6.40;3.97;;;13.40;99.90;;;;;;5033979;28;20209;-60
2023/06/01 01:03:57;;;;;;;6.82;4.43;;;13.40;99.90;;;;;;5033794;28;20177;-60
2023/06/01 01:07:06;;;;;;;6.43;4.18;;;13.40;99.90;;;;;;5033631;28;20216;-59
2023/06/01 01:10:03;;;;;;;7.93;4.32;;;13.40;99.90;;;;;;5026004;28;20185;-61
2023/06/01 01:12:40;;;;;;;5.70;4.38;;;14.00;99.90;;;;;;5033527;28;20642;-61
2023/06/01 01:15:17;;;;;;;11.20;4.72;;;13.40;99.90;;;;;;5033710;28;20166;-61
2023/06/01 01:17:46;;;;;;;9.40;4.50;;;13.20;99.90;;;;;;5033395;28;20170;-61
2023/06/01 01:20:16;;;;;;;7.03;4.68;;;13.20;99.90;;;;;;5033653;28;20170;-61
2023/06/01 01:23:16;;;;;;;6.13;4.25;;;12.90;99.90;;;;;;5033459;28;20178;-61
2023/06/01 01:26:10;;;;;;;6.22;4.40;;;12.90;99.90;;;;;;5013635;28;20162;-61
2023/06/01 01:28:42;;;;;;;6.75;4.20;;;13.00;99.90;;;;;;5013704;28;20240;-60
2023/06/01 01:31:15;;;;;;;6.82;4.18;;;12.90;99.90;;;;;;5013496;28;20194;-61
2023/06/01 01:33:43;;;;;;;8.57;3.55;;;12.90;99.90;;;;;;5013557;28;20249;-60
2023/06/01 01:36:10;;;;;;;5.63;4.00;;;13.00;99.90;;;;;;5013341;28;20651;-60
2023/06/01 01:38:36;;;;;;;5.30;3.97;;;12.90;99.90;;;;;;5013701;28;20182;-61
2023/06/01 01:41:02;;;;;;;6.57;3.85;;;13.00;99.90;;;;;;5013518;28;20167;-60
2023/06/01 01:43:29;;;;;;;5.73;4.27;;;13.10;99.90;;;;;;5013470;28;20678;-60
2023/06/01 01:46:19;;;;;;;4.90;3.80;;;13.00;99.90;;;;;;5013353;28;20657;-61
2023/06/01 01:49:00;;;;;;;4.75;3.40;;;13.00;99.90;;;;;;5012085;28;20231;-60
2023/06/01 01:51:46;;;;;;;6.55;3.22;;;13.00;99.90;;;;;;5013380;28;20182;-60
2023/06/01 01:54:13;;;;;;;4.97;3.17;;;12.80;99.90;;;;;;5027774;28;20212;-60
2023/06/01 01:56:39;;;;;;;5.60;3.40;;;12.80;99.90;;;;;;5032853;28;20271;-60
2023/06/01 01:59:05;;;;;;;6.40;3.43;;;12.90;99.90;;;;;;5042695;28;20204;-60
2023/06/01 02:01:33;;;;;;;5.43;3.47;;;13.40;99.90;;;;;;5052766;28;20642;-60
2023/06/01 02:04:03;;;;;;;4.97;3.23;;;12.80;99.90;;;;;;5052634;28;20177;-60
2023/06/01 02:06:28;;;;;;;4.97;3.57;;;12.80;99.90;;;;;;5012699;28;20205;-61
2023/06/01 02:08:54;;;;;;;5.63;3.10;;;12.70;99.90;;;;;;5012856;28;20547;-61
2023/06/01 02:11:20;;;;;;;4.53;3.47;;;12.70;99.90;;;;;;4995367;28;20186;-61
2023/06/01 02:13:46;;;;;;;5.93;3.65;;;12.80;99.90;;;;;;5012764;28;20737;-61
2023/06/01 02:16:12;;;;;;;5.87;3.50;;;12.70;99.90;;;;;;5012921;28;20174;-61
2023/06/01 02:18:39;;;;;;;8.07;3.63;;;12.60;99.90;;;;;;5012710;28;20543;-61
2023/06/01 02:21:05;;;;;;;5.97;3.30;;;12.60;99.90;;;;;;5012787;28;20178;-61
2023/06/01 02:23:30;;;;;;;5.30;3.27;;;12.50;99.90;;;;;;5012518;28;20175;-61
2023/06/01 02:25:56;;;;;;;5.63;3.70;;;12.60;99.90;;;;;;5012421;28;20301;-61
2023/06/01 02:28:22;;;;;;;4.20;3.20;;;12.70;99.90;;;;;;5012531;28;20666;-61
2023/06/01 02:30:47;;;;;;;5.80;3.00;;;12.70;99.90;;;;;;5016334;28;20174;-62
2023/06/01 02:33:13;;;;;;;6.03;3.90;;;12.70;99.90;;;;;;5016601;28;20225;-62
2023/06/01 02:35:39;;;;;;;4.43;3.30;;;12.60;99.90;;;;;;5023797;28;20225;-61
2023/06/01 02:38:05;;;;;;;5.03;3.50;;;12.70;99.90;;;;;;5013853;28;20178;-61
2023/06/01 02:40:30;;;;;;;5.33;3.63;;;12.60;99.90;;;;;;5031596;28;20601;-61
2023/06/01 02:42:56;;;;;;;7.30;3.63;;;12.60;99.90;;;;;;5031565;28;20705;-61
2023/06/01 02:45:22;;;;;;;5.43;3.70;;;12.60;99.90;;;;;;5031303;28;20672;-61
2023/06/01 02:47:47;;;;;;;8.80;4.43;;;12.60;99.90;;;;;;5030320;28;20213;-61
2023/06/01 02:50:13;;;;;;;6.30;3.67;;;12.60;99.90;;;;;;5022055;28;20178;-61
2023/06/01 02:52:38;;;;;;;5.80;3.60;;;12.60;99.90;;;;;;5016801;28;20280;-61
2023/06/01 02:55:06;;;;;;;4.93;3.50;;;12.60;99.90;;;;;;5031169;28;20273;-60
2023/06/01 02:57:31;;;;;;;6.55;3.45;;;12.70;99.90;;;;;;5031194;28;20186;-60
2023/06/01 02:59:57;;;;;;;6.85;4.20;;;12.60;99.90;;;;;;5030805;28;20531;-60
2023/06/01 03:02:22;;;;;;;5.40;3.80;;;12.50;99.90;;;;;;5031219;28;20221;-60
2023/06/01 03:04:48;;;;;;;5.88;3.58;;;12.50;99.90;;;;;;5031221;28;20273;-60
2023/06/01 03:07:14;;;;;;;6.07;3.28;;;12.50;99.90;;;;;;5031381;28;20220;-60
2023/06/01 03:09:40;;;;;;;5.90;3.33;;;12.40;99.90;;;;;;5031210;28;20189;-60
2023/06/01 03:12:06;;;;;;;7.37;3.30;;;12.30;99.90;;;;;;5002895;28;20646;-61
2023/06/01 03:14:32;;;;;;;4.25;3.22;;;12.40;99.90;;;;;;5031038;28;20188;-60
2023/06/01 03:16:57;;;;;;;6.03;3.45;;;12.40;99.90;;;;;;5031437;28;20174;-61
2023/06/01 03:19:23;;;;;;;4.22;2.97;;;12.40;99.90;;;;;;5030314;28;20187;-61
2023/06/01 03:21:49;;;;;;;5.17;3.60;;;12.40;99.90;;;;;;5030630;28;20266;-61
2023/06/01 03:24:14;;;;;;;5.07;3.40;;;12.30;99.90;;;;;;5030610;28;20264;-61
2023/06/01 03:26:40;;;;;;;3.93;3.10;;;12.40;99.90;;;;;;5029990;28;20576;-62
2023/06/01 03:29:06;;;;;;;5.93;3.47;;;12.40;99.90;;;;;;5030524;28;20253;-62
2023/06/01 03:31:34;;;;;;;5.43;3.47;;;12.30;99.90;;;;;;5015789;28;20281;-62
2023/06/01 03:34:00;;;;;;;6.10;3.20;;;12.40;99.90;;;;;;5011331;28;20166;-61
2023/06/01 03:36:26;;;;;;;5.72;2.83;;;12.40;99.90;;;;;;5019417;28;20181;-60
2023/06/01 03:38:51;;;;;;;5.13;3.47;;;12.30;99.90;;;;;;5031065;28;20729;-60
2023/06/01 03:41:17;;;;;;;7.82;3.63;;;12.40;99.90;;;;;;5021234;28;20272;-61
2023/06/01 03:43:42;;;;;;;6.43;3.23;;;12.50;99.90;;;;;;5011406;28;20178;-61
2023/06/01 03:46:08;;;;;;;5.07;3.63;;;12.40;99.90;;;;;;5011209;28;20174;-62
2023/06/01 03:48:34;;;;;;;6.72;3.53;;;12.50;99.90;;;;;;5011272;28;20258;-62
2023/06/01 03:51:00;;;;;;;7.63;3.20;;;12.40;99.90;;;;;;5011277;28;20714;-62
2023/06/01 03:53:26;;;;;;;5.73;3.30;;;12.40;99.90;;;;;;5020695;28;20269;-62
2023/06/01 03:55:52;;;;;;;5.82;3.25;;;12.40;99.90;;;;;;5030861;28;20178;-62
2023/06/01 03:58:19;;;;;;;11.52;3.42;;;12.50;99.90;;;;;;5031033;28;20260;-62
2023/06/01 04:00:45;;;;;;;5.57;3.40;;;12.40;99.90;;;;;;5030973;28;20192;-62
2023/06/01 04:03:11;;;;;;;5.53;3.50;;;12.40;99.90;;;;;;5030900;28;20185;-62
2023/06/01 04:05:36;;;;;;;6.50;4.17;;;12.30;99.90;;;;;;5030693;28;20178;-61
2023/06/01 04:08:02;;;;;;;6.05;3.72;;;12.30;99.90;;;;;;5030625;28;20772;-61
2023/06/01 04:10:28;;;;;;;7.33;4.20;;;12.30;99.90;;;;;;5012965;28;20264;-60
2023/06/01 04:12:54;;;;;;;7.47;4.33;;;12.30;99.90;;;;;;5034601;28;20181;-60
2023/06/01 04:15:20;;;;;;;6.57;4.27;;;12.20;99.90;;;;;;5034846;28;20164;-61
2023/06/01 04:17:46;;;;;;;8.07;4.70;;;12.10;99.90;;;;;;5016943;28;20626;-60
2023/06/01 04:20:16;;;;;;;8.73;4.40;;;12.00;99.90;;;;;;5034594;28;20212;-61
2023/06/01 04:22:42;;;;;;;6.90;4.90;;;12.10;99.90;;;;;;5034624;28;20239;-61
2023/06/01 04:25:11;;;;;;;6.37;4.40;;;12.10;99.90;;;;;;5017058;28;20174;-62
2023/06/01 04:27:37;;;;;;;10.67;4.57;;;12.10;99.90;;;;;;5032322;28;20213;-63
2023/06/01 04:30:05;;;;;;;7.83;5.30;;;12.20;99.90;;;;;;5034316;28;20228;-62
2023/06/01 04:32:31;;;;;;;8.60;4.93;;;12.20;99.90;;;;;;5034061;28;20283;-62
2023/06/01 04:34:56;;;;;;;8.27;4.57;;;12.10;99.90;;;;;;5034320;28;20177;-61
2023/06/01 04:37:22;;;;;;;9.50;5.30;;;12.10;99.90;;;;;;5003717;28;20690;-62
2023/06/01 04:39:50;;;;;;;14.73;5.23;;;12.20;99.90;;;;;;5034228;28;20269;-61
2023/06/01 04:42:16;;;;;;;8.27;4.80;;;12.20;99.90;;;;;;5025921;28;20185;-61
2023/06/01 04:44:42;;;;;;;10.63;5.20;;;12.10;99.90;;;;;;5020538;28;20269;-61
2023/06/01 04:47:08;;;;;;;10.43;5.30;;;12.10;99.90;;;;;;5033978;28;20236;-61
2023/06/01 04:49:36;;;;;;;9.50;5.43;;;12.20;99.90;;;;;;5034187;28;20170;-62
2023/06/01 04:52:02;;;;;;;7.27;5.03;;;12.10;99.90;;;;;;5033941;28;20178;-62
2023/06/01 04:54:27;;;;;;;11.73;6.50;;;12.20;99.90;;;;;;5033937;28;20680;-60
2023/06/01 04:56:53;;;;;;;9.18;5.60;;;12.10;99.90;;;;;;5033967;28;20173;-63
2023/06/01 04:59:21;;;;;;;11.57;6.00;;;12.00;99.90;;;;;;5033940;28;20253;-60
2023/06/01 05:01:46;;;;;;;9.03;5.70;;;12.10;99.90;;;;;;5034011;28;20170;-61
2023/06/01 05:04:12;;;;;;;10.93;5.00;;;12.10;99.90;;;;;;5033906;28;20244;-61
2023/06/01 05:06:38;;;;;;;10.60;5.60;;;12.20;99.90;;;;;;5033387;28;20204;-61
2023/06/01 05:09:04;;;;;;;9.23;6.07;;;12.20;99.90;;;;;;5033693;28;20635;-60
2023/06/01 05:11:30;;;;;;;11.85;6.05;;;12.10;99.90;;;;;;5033717;28;20227;-61
2023/06/01 05:14:01;;;;;;;9.52;5.80;;;12.20;99.90;;;;;;5033685;28;20174;-61
2023/06/01 05:16:27;;;;;;;8.27;5.53;;;12.10;99.90;;;;;;5033580;28;20200;-62
2023/06/01 05:18:53;;;;;;;10.53;5.37;;;12.20;99.90;;;;;;5034064;28;20170;-61
2023/06/01 05:21:18;;;;;;;12.87;5.70;;;12.10;99.90;;;;;;5033428;28;20174;-61
2023/06/01 05:23:44;;;;;;;11.70;5.83;;;12.10;99.90;;;;;;5033293;28;20166;-62
2023/06/01 05:26:10;;;;;;;12.83;6.20;;;12.10;99.90;;;;;;5033414;28;20611;-61
2023/06/01 05:28:36;;;;;;;11.90;6.30;;;12.00;99.90;;;;;;5033344;28;20181;-61
2023/06/01 05:31:02;;;;;;;10.87;5.60;;;12.10;99.90;;;;;;5033292;28;20588;-60
2023/06/01 05:33:27;;;;;;;12.50;5.73;;;12.00;99.90;;;;;;5033070;28;20713;-62
2023/06/01 05:35:53;;;;;;;10.27;5.65;;;12.10;99.90;;;;;;5033113;28;20163;-62
2023/06/01 05:38:19;;;;;;;9.63;5.40;;;12.00;99.90;;;;;;5033274;28;20257;-62
2023/06/01 05:40:45;;;;;;;9.97;5.10;;;12.00;99.90;;;;;;5033233;28;20182;-62
2023/06/01 05:43:11;;;;;;;8.17;5.00;;;12.00;99.90;;;;;;5025002;28;20202;-62
2023/06/01 05:45:36;;;;;;;11.40;6.07;;;12.00;99.90;;;;;;5028979;28;20174;-62
2023/06/01 05:48:03;;;;;;;10.00;5.33;;;12.00;99.90;;;;;;5030244;28;20535;-62
2023/06/01 05:50:28;;;;;;;10.33;4.87;;;12.00;99.90;;;;;;5013490;28;20245;-60
2023/06/01 05:52:54;;;;;;;8.50;4.80;;;11.90;99.90;;;;;;5013224;28;20670;-61
2023/06/01 05:55:20;;;;;;;11.77;5.27;;;12.20;99.90;;;;;;5013118;28;20162;-61
2023/06/01 05:57:45;;;;;;;9.23;5.27;;;12.00;99.90;;;;;;5013084;28;20170;-61
2023/06/01 06:00:13;;;;;;;9.47;4.97;;;12.00;99.90;;;;;;5014984;28;20666;-61
2023/06/01 06:02:39;;;;;;;14.82;5.57;;;12.30;99.90;;;;;;5032790;28;20201;-61
2023/06/01 06:05:05;;;;;;;11.83;5.33;;;12.20;99.90;;;;;;5032801;28;20177;-60
2023/06/01 06:07:31;;;;;;;8.23;5.03;;;12.30;99.90;;;;;;5014701;28;20595;-62
2023/06/01 06:09:57;;;;;;;13.73;5.68;;;12.40;99.90;;;;;;5033057;28;20264;-61
2023/06/01 06:12:22;;;;;;;11.40;5.30;;;12.30;99.90;;;;;;5032447;28;20221;-62
2023/06/01 06:14:51;;;;;;;10.50;5.57;;;12.10;99.90;;;;;;5032560;28;20172;-62
2023/06/01 06:17:16;;;;;;;8.93;5.25;;;12.20;99.90;;;;;;5015336;28;20178;-62
2023/06/01 06:19:43;;;;;;;9.83;5.63;;;12.20;99.90;;;;;;5032496;28;20170;-62
2023/06/01 06:22:09;;;;;;;11.07;5.40;;;12.20;99.90;;;;;;5032542;28;20265;-62
2023/06/01 06:24:35;;;;;;;11.93;5.72;;;12.30;99.90;;;;;;5032320;28;20632;-61
2023/06/01 06:27:01;;;;;;;9.73;5.57;;;12.30;99.90;;;;;;5032365;28;20228;-61
2023/06/01 06:29:27;;;;;;;11.73;5.90;;;12.30;99.90;;;;;;5032322;28;20269;-62
2023/06/01 06:31:53;;;;;;;10.57;6.00;;;12.20;99.90;;;;;;5032336;28;20771;-62
2023/06/01 06:34:18;;;;;;;11.90;5.60;;;12.20;99.90;;;;;;5031622;28;20547;-62
2023/06/01 06:36:44;;;;;;;9.93;5.47;;;12.10;99.90;;;;;;5031988;28;20645;-61
2023/06/01 06:39:10;;;;;;;9.97;5.43;;;12.00;99.90;;;;;;5032126;28;20661;-61
2023/06/01 06:41:36;;;;;;;10.77;6.07;;;12.10;99.90;;;;;;5032296;28;20232;-62
2023/06/01 06:44:02;;;;;;;12.70;6.23;;;;;;;;;;5014242;28;20174;-62
2023/06/01 06:46:27;;;;;;;10.33;5.30;;;12.20;99.90;;;;;;5031835;28;20285;-61
2023/06/01 06:48:54;;;;;;;12.43;5.87;;;12.10;99.90;;;;;;5032012;28;20693;-61
2023/06/01 06:51:19;;;;;;;13.33;6.03;;;12.20;99.90;;;;;;5031925;28;20177;-62
2023/06/01 06:53:45;;;;;;;10.60;5.87;;;12.30;99.90;;;;;;5031752;28;20181;-61
2023/06/01 06:56:10;;;;;;;10.67;6.40;;;12.30;99.90;;;;;;5031716;28;20170;-59
2023/06/01 06:58:36;;;;;;;14.50;5.80;;;12.30;99.90;;;;;;5031748;28;20204;-59
2023/06/01 07:01:04;;;;;;;13.70;5.83;;;12.40;99.90;;;;;;5031528;28;20677;-59
2023/06/01 07:03:31;;;;;;;15.00;6.07;;;12.40;99.90;;;;;;5031526;28;20166;-59
2023/06/01 07:05:57;;;;;;;14.55;5.35;;;12.40;99.90;;;;;;5029515;28;20182;-59
2023/06/01 07:08:22;;;;;;;12.93;6.03;;;12.50;99.90;;;;;;5026678;28;20267;-60
2023/06/01 07:10:48;;;;;;;13.95;5.45;;;12.60;99.90;;;;;;5031157;28;20188;-60
2023/06/01 07:13:14;;;;;;;13.18;5.90;;;12.50;99.90;;;;;;5031476;28;20741;-59
2023/06/01 07:15:40;;;;;;;13.63;6.20;;;12.60;99.90;;;;;;5030305;28;20296;-60
2023/06/01 07:18:06;;;;;;;9.13;5.60;;;12.60;99.90;;;;;;5030180;28;20181;-66
2023/06/01 07:20:32;;;;;;;13.20;6.20;;;12.70;99.90;;;;;;5018889;28;20229;-64
2023/06/01 07:22:57;;;;;;;13.10;5.72;;;12.80;99.90;;;;;;5031309;28;20180;-64
2023/06/01 07:25:23;;;;;;;11.68;5.95;;;12.90;99.90;;;;;;5021868;28;20182;-64
2023/06/01 07:27:50;;;;;;;10.85;5.97;;;12.90;99.90;;;;;;5011434;28;20220;-64
2023/06/01 07:30:16;;;;;;;10.93;6.35;;;13.00;99.90;;;;;;5005953;28;20173;-64
2023/06/01 07:32:42;;;;;;;10.50;5.63;;;12.80;99.90;;;;;;5030588;28;20248;-65
2023/06/01 07:35:08;;;;;;;11.90;5.47;;;13.10;99.90;;;;;;5031138;28;20182;-63
2023/06/01 07:37:34;;;;;;;10.82;5.30;;;13.10;99.90;;;;;;5031026;28;20174;-64
2023/06/01 07:39:59;;;;;;;12.52;5.63;;;13.10;99.90;;;;;;5030806;28;20170;-60
2023/06/01 07:42:25;;;;;;;9.63;5.60;;;13.20;99.90;;;;;;5019023;28;20270;-62
2023/06/01 07:44:51;;;;;;;9.38;5.38;;;13.20;99.90;;;;;;5020242;28;20263;-62
2023/06/01 07:47:16;;;;;;;10.35;6.00;;;13.20;99.90;;;;;;5025162;28;20215;-64
2023/06/01 07:49:42;;;;;;;11.68;5.63;;;13.30;99.90;;;;;;5030667;28;20166;-61
2023/06/01 07:52:08;;;;;;;11.50;5.65;;;13.40;99.90;;;;;;5030958;28;20251;-62
2023/06/01 07:54:37;;;;;;;12.73;5.60;;;13.30;99.90;;;;;;5028840;28;20257;-62
2023/06/01 07:57:04;;;;;;;10.50;5.55;;;13.40;99.90;;;;;;5030809;28;20170;-61
2023/06/01 07:59:33;;;;;;;7.78;5.25;;;13.40;99.90;;;;;;5030824;28;20523;-61
2023/06/01 08:02:00;;;;;;;8.52;5.40;;;13.50;99.90;;;;;;5025715;28;20173;-61
2023/06/01 08:04:27;;;;;;;10.52;5.57;;;13.70;99.90;;;;;;5026122;28;20174;-61
2023/06/01 08:06:53;;;;;;;8.98;5.13;;;13.80;99.90;;;;;;5029583;28;20306;-61
2023/06/01 08:09:20;;;;;;;8.20;4.90;;;13.80;99.90;;;;;;5012955;28;20208;-60
2023/06/01 08:11:46;;;;;;;10.32;5.07;;;13.80;99.90;;;;;;5025642;28;20223;-60
2023/06/01 08:14:11;;;;;;;8.20;5.32;;;13.90;99.90;;;;;;5012963;28;20170;-60
2023/06/01 08:16:37;;;;;;;12.25;5.88;;;13.90;99.90;;;;;;5030313;28;20182;-61
2023/06/01 08:19:03;;;;;;;8.38;5.07;;;13.80;99.90;;;;;;5030283;28;20194;-62
2023/06/01 08:21:28;;;;;;;8.48;4.80;;;14.20;99.90;;;;;;5029629;28;20181;-62
2023/06/01 08:23:54;;;;;;;17.08;6.05;;;14.20;99.90;;;;;;5017939;28;20456;-61
2023/06/01 08:26:21;;;;;;;10.35;4.88;;;14.20;99.90;;;;;;5029340;28;20177;-64
2023/06/01 08:28:53;;;;;;;12.57;5.10;;;14.30;99.90;;;;;;5029965;28;20182;-63
2023/06/01 08:31:23;;;;;;;10.27;5.18;;;14.40;99.90;;;;;;5030448;28;20166;-63
2023/06/01 08:33:50;;;;;;;9.38;5.15;;;14.50;99.90;;;;;;5030424;28;20186;-63
2023/06/01 08:36:16;;;;;;;10.15;4.88;;;14.60;99.90;;;;;;5028623;28;20181;-64
2023/06/01 08:38:42;;;;;;;13.30;5.50;;;14.70;99.90;;;;;;5030543;28;20170;-63
2023/06/01 08:41:26;;;;;;;8.45;5.03;;;14.60;99.90;;;;;;5030324;28;20181;-64
2023/06/01 08:43:59;;;;;;;13.07;5.45;;;14.70;99.90;;;;;;5030101;28;20205;-64
2023/06/01 08:46:26;;;;;;;14.57;4.70;;;14.80;99.90;;;;;;5030232;28;20169;-63
2023/06/01 08:48:54;;;;;;;9.95;5.05;;;14.80;99.90;;;;;;5030224;28;20178;-63
2023/06/01 08:51:22;;;;;;;9.93;4.90;;;14.90;99.90;;;;;;5030290;28;20166;-64
2023/06/01 08:53:50;;;;;;;9.63;4.63;;;14.90;99.90;;;;;;5030509;28;20196;-63
2023/06/01 08:56:16;;;;;;;9.45;5.30;;;14.90;99.90;;;;;;5030237;28;20269;-63
2023/06/01 08:58:43;;;;;;;9.00;4.85;;;14.80;99.90;;;;;;5033517;28;20631;-63
2023/06/01 09:01:18;;;;;;;7.43;4.38;;;15.00;99.90;;;;;;5033981;28;20297;-64
2023/06/01 09:03:44;;;;;;;7.68;4.55;;;15.20;99.90;;;;;;5016425;28;20572;-63
2023/06/01 09:06:10;;;;;;;7.88;4.95;;;15.50;99.90;;;;;;5033458;28;20197;-64
2023/06/01 09:08:36;;;;;;;7.57;4.32;;;15.60;99.90;;;;;;5033732;28;20641;-63
2023/06/01 09:11:02;;;;;;;10.45;4.43;;;15.70;99.90;;;;;;5033866;28;20174;-63
2023/06/01 09:13:38;;;;;;;6.28;4.03;;;15.80;99.90;;;;;;5033692;28;20201;-63
2023/06/01 09:16:05;;;;;;;8.73;4.20;;;15.80;99.90;;;;;;5033809;28;20232;-63
2023/06/01 09:18:31;;;;;;;10.30;5.00;;;15.80;99.90;;;;;;5033599;28;20176;-63
2023/06/01 09:21:13;;;;;;;14.00;9.65;;;15.80;99.90;;;;;;5033389;28;20178;-63
2023/06/01 09:23:38;;;;;;;34.35;24.33;;;15.80;99.90;;;;;;5033615;28;20240;-63
2023/06/01 09:26:06;;;;;;;16.95;11.90;;;15.70;99.90;;;;;;5033466;28;20212;-63
2023/06/01 09:28:52;;;;;;;26.02;14.93;;;16.00;99.90;;;;;;5033522;28;20262;-62
2023/06/01 09:31:46;;;;;;;30.88;19.13;;;16.20;99.90;;;;;;5033334;28;20220;-63
2023/06/01 09:34:20;;;;;;;19.90;10.27;;;16.30;99.90;;;;;;4993961;28;20202;-64
2023/06/01 09:36:54;;;;;;;12.32;6.65;;;16.60;99.90;;;;;;4993701;28;20179;-62
2023/06/01 09:39:22;;;;;;;11.68;6.57;;;16.80;99.90;;;;;;4994033;28;20175;-63
2023/06/01 09:41:58;;;;;;;35.05;18.80;;;17.00;99.90;;;;;;4993793;28;20183;-62
2023/06/01 09:44:41;;;;;;;33.70;21.15;;;17.20;99.90;;;;;;4993878;28;20175;-63
2023/06/01 09:47:12;;;;;;;26.50;14.70;;;17.10;99.90;;;;;;4993701;28;20198;-64
2023/06/01 09:49:42;;;;;;;16.80;10.40;;;17.20;99.90;;;;;;4993570;28;20187;-63
2023/06/01 09:52:17;;;;;;;15.80;8.52;;;17.40;99.90;;;;;;4993599;28;20170;-64
2023/06/01 09:54:48;;;;;;;11.50;5.07;;;17.60;99.90;;;;;;4993734;28;20178;-63
2023/06/01 09:57:24;;;;;;;12.63;9.10;;;17.60;99.90;;;;;;4993573;28;20167;-62
2023/06/01 09:59:50;;;;;;;10.57;7.53;;;17.60;99.90;;;;;;4993409;28;20229;-64
2023/06/01 10:02:18;;;;;;;7.95;4.03;;;17.60;99.90;;;;;;4993486;28;20172;-63
2023/06/01 10:04:58;;;;;;;11.73;4.75;;;17.70;99.90;;;;;;4993462;28;20176;-64
2023/06/01 10:07:27;;;;;;;13.77;7.68;;;17.60;99.90;;;;;;4993470;28;20264;-63
2023/06/01 10:10:02;;;;;;;9.95;5.78;;;17.70;99.90;;;;;;4992406;28;20182;-64
2023/06/01 10:12:28;;;;;;;17.92;5.72;;;17.60;99.90;;;;;;4993385;28;20178;-63
2023/06/01 10:14:55;;;;;;;8.63;4.03;;;18.00;99.90;;;;;;4993341;28;20318;-64
2023/06/01 10:17:21;;;;;;;14.60;8.13;;;18.30;99.90;;;;;;4993262;28;20182;-62
2023/06/01 10:19:48;;;;;;;12.35;6.72;;;18.30;99.90;;;;;;4993371;28;20179;-63
2023/06/01 10:22:13;;;;;;;13.55;7.38;;;18.90;99.90;;;;;;4993245;28;20195;-63
2023/06/01 10:24:41;;;;;;;7.35;4.93;;;18.90;99.90;;;;;;4993221;28;20210;-63
2023/06/01 10:27:10;;;;;;;12.98;5.03;;;19.00;99.90;;;;;;4992860;28;20222;-61
2023/06/01 10:29:36;;;;;;;9.23;6.22;;;18.90;99.90;;;;;;4991608;28;20179;-63
2023/06/01 10:32:02;;;;;;;8.15;3.63;;;19.10;99.90;;;;;;5003213;28;20296;-63
2023/06/01 10:34:44;;;;;;;8.27;4.07;;;19.60;99.90;;;;;;5032237;28;20174;-62
2023/06/01 10:37:10;;;;;;;7.60;4.05;;;19.90;99.90;;;;;;5032178;28;20266;-63
2023/06/01 10:39:36;;;;;;;11.80;3.67;;;19.80;99.90;;;;;;5032181;28;20261;-63
2023/06/01 10:42:12;;;;;;;9.57;3.83;;;19.90;99.90;;;;;;5032028;28;20612;-63
2023/06/01 10:44:48;;;;;;;4.63;3.50;;;20.40;99.90;;;;;;5031989;28;20224;-62
2023/06/01 10:47:13;;;;;;;8.25;3.83;;;20.50;99.90;;;;;;5031798;28;20292;-62
2023/06/01 10:49:51;;;;;;;7.10;3.75;;;20.90;99.90;;;;;;5014112;28;20768;-63
2023/06/01 10:52:29;;;;;;;8.38;4.05;;;20.70;99.90;;;;;;5031776;28;20212;-63
2023/06/01 10:55:10;;;;;;;6.95;3.83;;;21.20;99.90;;;;;;5031962;28;20268;-63
2023/06/01 10:57:48;;;;;;;7.60;3.63;;;21.60;99.90;;;;;;5031640;28;20661;-62
2023/06/01 11:00:26;;;;;;;6.03;3.80;;;21.40;99.90;;;;;;5031819;28;20205;-62
2023/06/01 11:02:59;;;;;;;6.90;3.80;;;21.40;99.90;;;;;;5014074;28;20213;-63
2023/06/01 11:05:48;;;;;;;8.90;3.83;;;21.40;99.90;;;;;;5031406;28;20170;-63
2023/06/01 11:08:22;;;;;;;6.43;4.78;;;21.40;99.90;;;;;;5031323;28;20275;-63
2023/06/01 11:10:54;;;;;;;8.88;4.25;;;21.50;99.90;;;;;;5031469;28;20234;-63
2023/06/01 11:13:35;;;;;;;7.10;4.60;;;22.10;99.90;;;;;;5031426;28;20197;-63
2023/06/01 11:16:04;;;;;;;7.57;3.67;;;22.40;99.90;;;;;;5031428;28;20193;-63
2023/06/01 11:18:57;;;;;;;7.57;4.10;;;22.40;99.90;;;;;;5031305;28;20169;-63
2023/06/01 11:21:24;;;;;;;7.68;3.83;;;22.20;99.90;;;;;;5013732;28;20188;-63
2023/06/01 11:23:51;;;;;;;7.55;4.18;;;22.30;99.90;;;;;;5031166;28;20178;-63
2023/06/01 11:26:24;;;;;;;6.82;4.63;;;22.30;99.90;;;;;;5031439;28;20209;-64
2023/06/01 11:28:51;;;;;;;10.18;4.60;;;21.70;99.90;;;;;;5013351;28;20185;-64
2023/06/01 11:31:18;;;;;;;12.70;5.22;;;21.90;99.90;;;;;;5031082;28;20169;-63
2023/06/01 11:33:58;;;;;;;10.38;5.38;;;22.50;99.90;;;;;;5030999;28;20693;-64
2023/06/01 11:36:24;;;;;;;8.05;5.20;;;23.20;99.90;;;;;;5031132;28;20303;-63
2023/06/01 11:38:51;;;;;;;9.15;4.55;;;23.00;99.90;;;;;;5031337;28;20185;-64
2023/06/01 11:41:20;;;;;;;10.35;4.60;;;22.80;99.90;;;;;;5031284;28;20560;-64
2023/06/01 11:43:56;;;;;;;10.30;5.38;;;22.80;99.90;;;;;;5031224;28;20177;-62
2023/06/01 11:46:23;;;;;;;9.15;4.43;;;22.90;99.90;;;;;;5030877;28;20531;-62
2023/06/01 11:49:06;;;;;;;9.82;5.35;;;23.10;99.90;;;;;;5031002;28;20232;-62
2023/06/01 11:51:35;;;;;;;12.65;5.82;;;23.00;99.90;;;;;;5030895;28;20207;-62
2023/06/01 11:54:02;;;;;;;6.53;4.68;;;23.10;99.90;;;;;;5031031;28;20158;-62
2023/06/01 11:56:33;;;;;;;10.18;6.43;;;23.20;99.90;;;;;;5031009;28;20178;-62
2023/06/01 11:59:00;;;;;;;17.30;8.23;;;22.70;99.90;;;;;;5030800;28;20406;-62
2023/06/01 12:01:27;;;;;;;11.57;5.60;;;23.30;99.90;;;;;;5030933;28;20173;-62
2023/06/01 12:03:54;;;;;;;11.80;5.53;;;23.40;99.90;;;;;;5028580;28;20177;-62
2023/06/01 12:06:27;;;;;;;7.82;4.88;;;23.80;99.90;;;;;;5030471;28;20185;-62
2023/06/01 12:08:55;;;;;;;11.77;4.78;;;23.60;99.90;;;;;;5030623;28;20174;-62
2023/06/01 12:11:26;;;;;;;8.65;5.30;;;24.50;99.90;;;;;;5030601;28;20169;-61
2023/06/01 12:13:53;;;;;;;8.00;4.57;;;23.90;99.90;;;;;;5030641;28;20600;-62
2023/06/01 12:16:19;;;;;;;11.07;5.50;;;23.60;99.90;;;;;;5030745;28;20177;-62
2023/06/01 12:18:44;;;;;;;11.02;6.45;;;24.20;99.90;;;;;;5030661;28;20526;-62
2023/06/01 12:21:15;;;;;;;8.00;5.53;;;24.90;99.90;;;;;;5030786;28;20638;-62
2023/06/01 12:23:41;;;;;;;8.35;5.38;;;24.40;99.10;;;;;;5010916;28;20197;-62
2023/06/01 12:26:08;;;;;;;9.93;5.00;;;24.70;97.20;;;;;;5010896;28;20217;-62
2023/06/01 12:28:54;;;;;;;8.98;5.20;;;24.70;98.90;;;;;;5010796;28;20221;-62
2023/06/01 12:31:20;;;;;;;8.98;4.95;;;25.60;94.00;;;;;;5011038;28;20309;-62
2023/06/01 12:33:48;;;;;;;8.23;4.70;;;25.60;90.30;;;;;;5014101;28;20222;-62
2023/06/01 12:36:32;;;;;;;9.90;4.85;;;26.10;86.80;;;;;;4997242;28;20181;-62
2023/06/01 12:38:59;;;;;;;10.43;5.13;;;26.40;64.80;;;;;;5014628;28;20178;-63
2023/06/01 12:41:25;;;;;;;11.45;5.45;;;26.10;45.30;;;;;;5014505;28;20666;-63
2023/06/01 12:43:52;;;;;;;10.80;5.75;;;26.10;52.10;;;;;;5025487;28;20554;-61
2023/06/01 12:46:28;;;;;;;10.07;5.07;;;26.00;45.30;;;;;;5024949;28;20174;-61
2023/06/01 12:49:10;;;;;;;9.23;4.65;;;25.90;44.60;;;;;;4998479;28;20192;-61